Neffs, Ohio
Current Conditions -  °F | °C
As of 7:53 AM on Wednesday 22 Oct 2014 (Local Time) from KHLG Reporting Station
Overcast Overcast  
Wind Chill: 41°   Ceiling: 1200
Heat Index: 47°   Visibility: 10mi
Dew Point: 42°   Wind: 13mph
Humidity: 83%   Direction: 360°N
Pressure: 30.13"   Gusts: NA
Location:  40.03°N, 80.82°W
Report Text: KHLG 221153Z 36011KT 10SM OVC012 08/06 A3013 RMK AO2 SLP208 60001 70022 T00830056 10083 20083 53010
Loading
Personal Weather Stations






























Interactive Weather Map
Tropical Storm Tracking
New forecast layout! Learn more

10-Day Weather Forecast

Advertisements
Track Severe Weather on mobile